Dagsboro, Delaware
Current Conditions -  °F | °C
As of 9:54 PM on Wednesday 22 Oct 2014 (Local Time) from KGED Reporting Station
Overcast Overcast  
Wind Chill: 53°   Ceiling: 1900
Heat Index: 53°   Visibility: 10mi
Dew Point: 50°   Wind: 10mph
Humidity: 89%   Direction: 340°NNW
Pressure: 29.82"   Gusts: 17mph
Location:  38.55°N, 75.25°W
Report Text: KGED 230154Z AUTO 34009G15KT 290V010 10SM FEW012 BKN019 OVC037 12/10 A2982 RMK AO2 RAE36 SLP098 P0000 T01170100
Loading
Personal Weather Stations






























Interactive Weather Map
Tropical Storm Tracking
New forecast layout! Learn more

10-Day Weather Forecast

Advertisements
Track Severe Weather on mobile